Indianapolis, Indiana
Traffic Map
Current Weather Conditions
Indianapolis, Indiana
Few Clouds
Few Clouds
13°
Feels Like: 13°
Wind Chill: 13° Ceiling: Unl
Heat Index: 13° Visibility: 10mi
Dew Point: Wind: 9mph
Humidity: 60% Direction: 20° (NNE)
Pressure: 30.27in Gusts: 0mph
Raw Report DataKIND 221554Z 02008KT 10SM FEW027 13/06 A3027 RMK AO2 SLP250 T01330056
Traffic Incident Summary
Active as of:
Severity:
Category:
InformationThere was an issue retrieving the traffic information for this location. Please try a different location or try again shortly.
Advertisements
Track Severe Weather on mobile